Time;durP1;ratioP1;P1;durP2;ratioP2;P2;SDS_P1;SDS_P2;PMS_P1;PMS_P2;Temp;Humidity;BMP_temperature;BMP_pressure;BME280_temperature;BME280_humidity;BME280_pressure;Samples;Min_cycle;Max_cycle;Signal;HPM_P1;HPM_P2
2021/05/03 00:00:46;;;;;;;1.40;0.50;;;21.60;42.00;;;;;;5047693;28;20416;-68
2021/05/03 00:03:12;;;;;;;0.90;0.60;;;21.60;42.00;;;;;;5041137;28;20426;-68
2021/05/03 00:05:45;;;;;;;1.23;0.50;;;21.60;41.90;;;;;;5043277;28;20414;-69
2021/05/03 00:08:11;;;;;;;1.10;0.80;;;21.60;42.00;;;;;;5034584;28;22066;-68
2021/05/03 00:10:37;;;;;;;2.40;0.60;;;21.50;41.50;;;;;;5053773;28;21597;-68
2021/05/03 00:13:03;;;;;;;3.20;0.80;;;21.50;42.00;;;;;;5050050;28;20408;-68
2021/05/03 00:15:30;;;;;;;1.10;0.68;;;21.50;41.80;;;;;;5039914;28;20987;-69
2021/05/03 00:17:56;;;;;;;1.33;0.60;;;21.40;41.70;;;;;;5049492;28;20422;-68
2021/05/03 00:20:22;;;;;;;0.80;0.60;;;21.40;41.40;;;;;;5038674;28;20421;-68
2021/05/03 00:22:49;;;;;;;0.65;0.60;;;21.40;42.20;;;;;;5047052;28;20427;-68
2021/05/03 00:25:15;;;;;;;1.80;0.90;;;21.40;41.30;;;;;;5026337;28;20432;-68
2021/05/03 00:27:41;;;;;;;2.30;0.60;;;21.40;41.70;;;;;;5032726;28;20507;-68
2021/05/03 00:30:08;;;;;;;1.40;0.50;;;21.40;41.70;;;;;;5048622;28;20477;-68
2021/05/03 00:32:34;;;;;;;1.00;0.70;;;21.40;42.10;;;;;;5051079;28;20774;-68
2021/05/03 00:35:01;;;;;;;0.80;0.70;;;21.40;42.00;;;;;;5031429;28;20842;-68
2021/05/03 00:37:27;;;;;;;0.63;0.50;;;21.40;41.70;;;;;;5050195;28;20982;-67
2021/05/03 00:39:54;;;;;;;2.30;0.70;;;21.50;41.90;;;;;;5050960;28;20428;-68
2021/05/03 00:42:20;;;;;;;1.38;0.70;;;21.40;41.90;;;;;;5053306;28;20414;-68
2021/05/03 00:44:46;;;;;;;1.15;0.60;;;21.40;41.40;;;;;;5050004;28;20914;-68
2021/05/03 00:47:12;;;;;;;2.40;0.60;;;21.40;41.60;;;;;;5048488;28;20427;-68
2021/05/03 00:49:39;;;;;;;0.70;0.50;;;21.40;41.50;;;;;;5040480;28;20422;-69
2021/05/03 00:52:06;;;;;;;1.20;0.70;;;21.40;41.50;;;;;;5048858;28;20413;-67
2021/05/03 00:54:32;;;;;;;0.68;0.68;;;21.40;41.30;;;;;;5049804;28;20424;-68
2021/05/03 00:56:59;;;;;;;0.70;0.70;;;21.40;41.80;;;;;;5052909;28;20422;-68
2021/05/03 00:59:25;;;;;;;1.33;0.60;;;21.30;41.70;;;;;;5048730;28;20409;-68
2021/05/03 01:01:51;;;;;;;0.80;0.68;;;21.30;42.10;;;;;;5048997;28;20424;-67
2021/05/03 01:04:17;;;;;;;1.00;0.80;;;21.30;41.40;;;;;;5040911;28;20411;-68
2021/05/03 01:06:43;;;;;;;1.65;1.00;;;21.30;41.20;;;;;;5005176;28;20428;-68
2021/05/03 01:09:10;;;;;;;0.93;0.90;;;21.30;41.20;;;;;;5037900;28;20424;-66
2021/05/03 01:11:37;;;;;;;2.10;0.90;;;21.30;41.30;;;;;;5038855;28;20498;-69
2021/05/03 01:14:04;;;;;;;0.60;0.60;;;21.30;41.50;;;;;;5036728;28;20426;-68
2021/05/03 01:16:31;;;;;;;0.70;0.60;;;21.30;41.40;;;;;;5048603;28;20764;-68
2021/05/03 01:18:57;;;;;;;2.15;1.00;;;21.30;41.80;;;;;;5039574;28;20483;-67
2021/05/03 01:21:24;;;;;;;1.60;0.60;;;21.30;41.90;;;;;;5050213;28;20423;-68
2021/05/03 01:23:50;;;;;;;1.40;0.65;;;21.30;41.80;;;;;;5050629;28;20409;-66
2021/05/03 01:26:16;;;;;;;0.70;0.60;;;21.40;41.70;;;;;;5051706;28;20435;-68
2021/05/03 01:28:42;;;;;;;1.00;0.60;;;21.40;41.90;;;;;;5008155;28;20452;-68
2021/05/03 01:31:08;;;;;;;1.50;0.90;;;21.40;41.90;;;;;;5054189;28;20416;-68
2021/05/03 01:33:35;;;;;;;1.00;0.65;;;21.40;41.90;;;;;;5052274;28;20438;-68
2021/05/03 01:36:01;;;;;;;1.80;0.80;;;21.30;41.30;;;;;;5038438;28;20434;-68
2021/05/03 01:38:28;;;;;;;1.80;0.70;;;21.30;41.50;;;;;;5040354;28;20419;-69
2021/05/03 01:40:54;;;;;;;2.25;1.10;;;21.30;41.70;;;;;;5036346;28;20419;-69
2021/05/03 01:43:24;;;;;;;3.50;0.70;;;21.40;41.70;;;;;;5049872;28;20410;-68
2021/05/03 01:45:51;;;;;;;0.50;0.40;;;21.40;41.70;;;;;;5041532;28;20418;-68
2021/05/03 01:48:19;;;;;;;0.85;0.50;;;21.40;41.80;;;;;;5049818;28;20417;-67
2021/05/03 01:50:45;;;;;;;0.80;0.50;;;21.40;41.70;;;;;;5035458;28;20412;-68
2021/05/03 01:53:11;;;;;;;0.70;0.63;;;21.40;41.60;;;;;;5047636;28;20412;-68
2021/05/03 01:55:38;;;;;;;0.70;0.70;;;21.40;41.60;;;;;;5045851;28;20938;-68
2021/05/03 01:58:06;;;;;;;1.10;0.80;;;21.40;41.60;;;;;;5047822;28;20423;-68
2021/05/03 02:00:32;;;;;;;0.90;0.80;;;21.40;41.50;;;;;;5036256;28;20449;-68
2021/05/03 02:02:59;;;;;;;0.80;0.80;;;21.40;41.50;;;;;;5035861;28;20486;-66
2021/05/03 02:05:25;;;;;;;0.90;0.80;;;21.40;41.40;;;;;;5052242;28;20408;-68
2021/05/03 02:07:56;;;;;;;0.50;0.50;;;21.40;41.60;;;;;;5018286;28;20420;-67
2021/05/03 02:10:22;;;;;;;1.50;0.60;;;21.40;41.20;;;;;;5018494;28;20403;-68
2021/05/03 02:12:49;;;;;;;0.80;0.73;;;21.40;41.40;;;;;;5049942;28;20789;-68
2021/05/03 02:15:15;;;;;;;0.60;0.60;;;21.30;41.10;;;;;;5051491;28;20590;-68
2021/05/03 02:17:41;;;;;;;2.30;0.70;;;21.30;41.20;;;;;;5038315;28;20425;-68
2021/05/03 02:20:09;;;;;;;1.08;0.68;;;21.30;41.20;;;;;;5050656;28;20968;-68
2021/05/03 02:22:35;;;;;;;1.30;0.60;;;21.30;40.90;;;;;;5054341;28;20789;-66
2021/05/03 02:25:01;;;;;;;0.70;0.70;;;21.30;41.20;;;;;;5026844;28;20430;-66
2021/05/03 02:27:27;;;;;;;2.33;0.63;;;21.20;40.70;;;;;;5020746;28;20428;-69
2021/05/03 02:29:54;;;;;;;1.20;0.50;;;21.20;40.70;;;;;;5030798;28;20429;-69
2021/05/03 02:32:20;;;;;;;0.90;0.60;;;21.20;40.80;;;;;;5049650;28;20423;-68
2021/05/03 02:34:46;;;;;;;0.70;0.60;;;21.20;41.10;;;;;;5043208;28;20420;-67
2021/05/03 02:37:12;;;;;;;0.60;0.50;;;21.20;40.90;;;;;;5044025;28;20428;-68
2021/05/03 02:39:41;;;;;;;0.70;0.70;;;21.20;41.20;;;;;;5051150;28;20439;-68
2021/05/03 02:42:08;;;;;;;1.60;0.70;;;21.20;41.10;;;;;;5037069;28;20557;-68
2021/05/03 02:44:38;;;;;;;1.10;0.60;;;21.20;41.30;;;;;;5029868;28;20419;-68
2021/05/03 02:47:05;;;;;;;1.30;0.60;;;21.20;41.40;;;;;;5026352;28;20567;-67
2021/05/03 02:49:32;;;;;;;1.48;1.00;;;21.20;41.40;;;;;;5010334;28;20423;-68
2021/05/03 02:51:58;;;;;;;0.60;0.60;;;21.20;41.40;;;;;;5060837;28;20425;-68
2021/05/03 02:54:24;;;;;;;1.35;0.70;;;21.30;41.50;;;;;;5034591;28;20430;-68
2021/05/03 02:56:50;;;;;;;1.08;0.60;;;21.30;41.50;;;;;;5050056;28;20424;-69
2021/05/03 02:59:16;;;;;;;0.50;0.50;;;21.30;41.40;;;;;;5036384;28;20426;-68
2021/05/03 03:01:42;;;;;;;0.90;0.50;;;21.30;41.30;;;;;;5050548;28;20418;-68
2021/05/03 03:04:09;;;;;;;0.63;0.63;;;21.30;42.20;;;;;;5028762;28;20443;-68
2021/05/03 03:06:35;;;;;;;0.60;0.60;;;21.30;40.90;;;;;;5043096;28;20428;-68
2021/05/03 03:09:01;;;;;;;1.58;0.60;;;21.20;40.70;;;;;;5051797;28;20459;-68
2021/05/03 03:11:28;;;;;;;0.80;0.70;;;21.20;40.90;;;;;;5050529;28;20449;-68
2021/05/03 03:13:54;;;;;;;1.10;0.60;;;21.20;40.90;;;;;;5051276;28;20449;-69
2021/05/03 03:16:22;;;;;;;1.90;0.70;;;21.20;40.90;;;;;;5051517;28;20475;-68
2021/05/03 03:18:48;;;;;;;1.90;0.70;;;21.20;40.70;;;;;;5040417;28;20634;-67
2021/05/03 03:21:15;;;;;;;1.15;0.60;;;21.30;40.60;;;;;;5049716;28;20420;-68
2021/05/03 03:23:41;;;;;;;2.20;0.60;;;21.30;40.70;;;;;;5019460;28;20423;-68
2021/05/03 03:26:08;;;;;;;1.20;0.55;;;21.30;40.40;;;;;;5050171;28;20406;-68
2021/05/03 03:28:34;;;;;;;0.70;0.50;;;21.40;40.60;;;;;;5043201;28;20528;-69
2021/05/03 03:31:00;;;;;;;0.77;0.63;;;21.40;40.30;;;;;;5023717;28;20401;-68
2021/05/03 03:33:26;;;;;;;1.02;0.63;;;21.40;40.20;;;;;;5042140;28;20403;-68
2021/05/03 03:35:52;;;;;;;1.25;0.60;;;21.50;40.10;;;;;;5038340;28;20427;-68
2021/05/03 03:38:19;;;;;;;0.70;0.63;;;21.50;40.00;;;;;;5041900;28;20559;-69
2021/05/03 03:40:45;;;;;;;0.70;0.50;;;21.50;40.10;;;;;;5032680;28;20469;-69
2021/05/03 03:43:11;;;;;;;1.48;0.70;;;21.50;40.40;;;;;;5048272;28;20412;-66
2021/05/03 03:45:38;;;;;;;1.35;0.50;;;21.40;40.20;;;;;;5033115;28;20412;-68
2021/05/03 03:48:05;;;;;;;0.57;0.57;;;21.40;40.10;;;;;;5051980;28;20418;-67
2021/05/03 03:50:31;;;;;;;0.60;0.60;;;21.40;40.50;;;;;;5037094;28;20422;-68
2021/05/03 03:52:57;;;;;;;2.10;0.80;;;21.40;40.40;;;;;;5048078;28;20436;-66
2021/05/03 03:55:24;;;;;;;0.80;0.60;;;21.40;40.30;;;;;;5050593;28;20421;-66
2021/05/03 03:57:51;;;;;;;0.70;0.70;;;21.40;40.30;;;;;;5051742;28;21430;-68
2021/05/03 04:00:17;;;;;;;0.70;0.70;;;21.40;40.20;;;;;;5032343;28;20525;-69
2021/05/03 04:02:45;;;;;;;0.53;0.50;;;21.30;40.10;;;;;;5047159;28;21414;-68
2021/05/03 04:05:20;;;;;;;1.13;0.60;;;21.30;40.10;;;;;;5049016;28;20430;-68
2021/05/03 04:07:51;;;;;;;1.20;0.80;;;21.30;40.20;;;;;;5006128;28;20925;-68
2021/05/03 04:10:27;;;;;;;1.00;0.90;;;21.30;40.20;;;;;;5040603;28;20491;-68
2021/05/03 04:13:15;;;;;;;1.50;0.70;;;21.30;40.10;;;;;;5047926;28;20416;-68
2021/05/03 04:21:16;;;;;;;0.60;0.60;;;21.30;40.40;;;;;;5039964;28;20419;-67
2021/05/03 04:23:49;;;;;;;1.60;0.60;;;21.40;40.30;;;;;;5045635;28;20415;-67
2021/05/03 04:26:16;;;;;;;0.55;0.55;;;21.40;40.40;;;;;;5049885;28;20442;-68
2021/05/03 04:28:43;;;;;;;1.95;0.70;;;21.40;40.20;;;;;;5051497;28;20430;-67
2021/05/03 04:31:10;;;;;;;0.60;0.60;;;21.40;40.40;;;;;;5009132;28;20409;-68
2021/05/03 04:33:36;;;;;;;0.60;0.60;;;21.40;40.30;;;;;;5039479;28;21229;-68
2021/05/03 04:36:02;;;;;;;0.60;0.60;;;21.40;40.20;;;;;;5036936;28;20415;-68
2021/05/03 04:38:28;;;;;;;1.80;0.80;;;21.40;40.30;;;;;;5049281;28;20896;-68
2021/05/03 04:40:54;;;;;;;0.80;0.80;;;21.40;40.10;;;;;;5035474;28;20997;-68
2021/05/03 04:43:20;;;;;;;1.80;0.60;;;21.40;40.10;;;;;;5028754;28;20936;-67
2021/05/03 04:45:47;;;;;;;0.50;0.50;;;21.40;39.90;;;;;;5041205;28;20475;-68
2021/05/03 04:48:14;;;;;;;1.03;0.60;;;21.50;39.70;;;;;;5052583;28;20454;-68
2021/05/03 04:50:40;;;;;;;0.90;0.70;;;21.50;39.20;;;;;;5035830;28;20417;-67
2021/05/03 04:53:06;;;;;;;1.00;0.70;;;21.50;39.20;;;;;;5039738;28;20424;-69
2021/05/03 04:55:32;;;;;;;0.90;0.60;;;21.60;39.30;;;;;;5033801;28;20432;-68
2021/05/03 04:57:58;;;;;;;1.00;0.68;;;21.60;39.30;;;;;;5039095;28;20418;-68
2021/05/03 05:00:24;;;;;;;1.30;0.60;;;21.50;39.30;;;;;;5036107;28;20408;-68
2021/05/03 05:02:51;;;;;;;0.70;0.60;;;21.50;39.60;;;;;;5035833;28;20428;-69
2021/05/03 05:05:17;;;;;;;1.92;0.60;;;21.40;39.90;;;;;;5037124;28;20409;-68
2021/05/03 05:07:43;;;;;;;1.17;0.50;;;21.40;39.50;;;;;;5037628;28;20803;-69
2021/05/03 05:10:10;;;;;;;1.00;0.80;;;21.40;39.10;;;;;;5050878;28;21093;-68
2021/05/03 05:12:36;;;;;;;2.10;0.95;;;21.40;39.10;;;;;;5050102;28;20426;-68
2021/05/03 05:15:03;;;;;;;1.20;0.70;;;21.40;39.10;;;;;;5049457;28;20458;-68
2021/05/03 05:17:30;;;;;;;0.90;0.70;;;21.50;39.20;;;;;;5049966;28;20477;-69
2021/05/03 05:19:57;;;;;;;2.20;0.57;;;21.40;39.10;;;;;;5051487;28;20423;-69
2021/05/03 05:22:23;;;;;;;1.65;0.75;;;21.40;39.40;;;;;;5048890;28;20808;-68
2021/05/03 05:24:49;;;;;;;0.75;0.73;;;21.40;39.10;;;;;;5049648;28;20427;-67
2021/05/03 05:27:15;;;;;;;1.30;0.68;;;21.30;39.00;;;;;;5022755;28;20430;-68
2021/05/03 05:29:41;;;;;;;0.90;0.60;;;21.30;39.00;;;;;;5040260;28;20435;-69
2021/05/03 05:32:07;;;;;;;1.25;0.60;;;21.30;39.00;;;;;;5037118;28;20423;-69
2021/05/03 05:34:34;;;;;;;0.90;0.60;;;21.40;39.10;;;;;;5039517;28;20795;-68
2021/05/03 05:37:01;;;;;;;0.70;0.70;;;21.40;39.10;;;;;;5048719;28;20417;-69
2021/05/03 05:39:27;;;;;;;1.80;1.00;;;21.40;39.10;;;;;;5039616;28;20419;-69
2021/05/03 05:41:53;;;;;;;1.55;0.75;;;21.40;39.10;;;;;;5047165;28;20416;-66
2021/05/03 05:44:19;;;;;;;0.50;0.50;;;21.40;39.10;;;;;;5051472;28;20452;-68
2021/05/03 05:46:47;;;;;;;1.75;0.60;;;21.40;39.10;;;;;;5019793;28;20771;-68
2021/05/03 05:49:13;;;;;;;3.80;0.70;;;21.40;39.10;;;;;;5032848;28;21162;-68
2021/05/03 05:51:40;;;;;;;0.77;0.63;;;21.40;39.10;;;;;;5037194;28;21147;-68
2021/05/03 05:54:07;;;;;;;1.90;0.50;;;21.40;39.10;;;;;;5048184;28;20485;-69
2021/05/03 05:56:33;;;;;;;0.65;0.55;;;21.40;39.10;;;;;;5046746;28;20416;-68
2021/05/03 05:58:59;;;;;;;1.00;0.70;;;21.40;39.40;;;;;;5036118;28;20420;-68
2021/05/03 06:01:26;;;;;;;1.70;0.65;;;21.40;39.30;;;;;;5038005;28;20424;-69
2021/05/03 06:03:53;;;;;;;0.77;0.60;;;21.40;39.60;;;;;;5046237;28;20423;-67
2021/05/03 06:06:19;;;;;;;1.00;0.80;;;21.40;39.70;;;;;;5032226;28;20438;-66
2021/05/03 06:08:45;;;;;;;0.80;0.50;;;21.50;39.80;;;;;;5045572;28;20423;-68
2021/05/03 06:11:13;;;;;;;0.95;0.60;;;21.50;39.70;;;;;;5033504;28;20421;-68
2021/05/03 06:13:39;;;;;;;1.10;0.70;;;21.50;39.90;;;;;;5016913;28;20417;-69
2021/05/03 06:16:05;;;;;;;0.50;0.50;;;21.50;39.90;;;;;;5047259;28;20473;-68
2021/05/03 06:18:31;;;;;;;1.00;0.63;;;21.50;40.00;;;;;;5049318;28;20408;-68
2021/05/03 06:20:57;;;;;;;0.93;0.70;;;21.50;40.10;;;;;;5024772;28;20667;-68
2021/05/03 06:23:23;;;;;;;1.50;0.60;;;21.40;40.10;;;;;;5052183;28;20434;-68
2021/05/03 06:25:50;;;;;;;0.77;0.60;;;21.40;40.20;;;;;;5035957;28;21006;-67
2021/05/03 06:28:17;;;;;;;1.45;0.80;;;21.40;40.10;;;;;;5044674;28;20417;-67
2021/05/03 06:30:43;;;;;;;0.60;0.60;;;21.40;40.20;;;;;;5018885;28;20469;-68
2021/05/03 06:33:09;;;;;;;0.68;0.55;;;21.40;40.10;;;;;;5033660;28;20426;-68
2021/05/03 06:35:35;;;;;;;1.30;0.60;;;21.40;40.20;;;;;;5037399;28;20427;-68
2021/05/03 06:38:05;;;;;;;1.00;0.60;;;21.40;40.30;;;;;;5030469;28;21654;-68
2021/05/03 06:40:31;;;;;;;0.60;0.60;;;21.40;40.40;;;;;;5033153;28;21136;-67
2021/05/03 06:42:57;;;;;;;0.60;0.60;;;21.40;40.50;;;;;;5047555;28;20469;-68
2021/05/03 06:45:24;;;;;;;0.70;0.70;;;21.40;40.30;;;;;;5039127;28;20477;-69
2021/05/03 06:47:51;;;;;;;0.60;0.60;;;21.40;40.40;;;;;;5037079;28;21934;-68
2021/05/03 06:50:18;;;;;;;0.60;0.60;;;21.40;40.50;;;;;;5026229;28;20470;-68
2021/05/03 06:52:44;;;;;;;0.70;0.70;;;21.40;40.60;;;;;;5049085;28;20410;-68
2021/05/03 06:55:11;;;;;;;0.80;0.50;;;21.40;40.50;;;;;;5037054;28;20447;-68
2021/05/03 06:57:37;;;;;;;0.50;0.50;;;21.40;40.70;;;;;;5048445;28;20412;-68
2021/05/03 07:00:04;;;;;;;0.93;0.50;;;21.30;40.70;;;;;;5039821;28;20408;-68
2021/05/03 07:02:31;;;;;;;0.68;0.68;;;21.30;40.60;;;;;;5034985;28;20412;-68
2021/05/03 07:04:57;;;;;;;1.75;0.50;;;21.30;40.60;;;;;;5053609;28;20443;-68
2021/05/03 07:07:24;;;;;;;0.90;0.60;;;21.30;40.60;;;;;;5020041;28;20416;-68
2021/05/03 07:09:50;;;;;;;0.60;0.60;;;21.30;40.60;;;;;;5045855;28;21586;-69
2021/05/03 07:12:19;;;;;;;0.63;0.63;;;21.30;40.60;;;;;;5041273;28;20968;-69
2021/05/03 07:14:45;;;;;;;0.50;0.50;;;21.30;40.50;;;;;;5046114;28;20416;-66
2021/05/03 07:17:12;;;;;;;0.50;0.50;;;21.30;40.50;;;;;;5048077;28;20465;-68
2021/05/03 07:19:38;;;;;;;2.20;0.60;;;21.40;40.60;;;;;;5049329;28;20983;-68
2021/05/03 07:22:05;;;;;;;2.70;0.60;;;21.30;40.60;;;;;;5025337;28;20419;-68
2021/05/03 07:24:31;;;;;;;0.90;0.90;;;21.30;40.60;;;;;;5035904;28;20458;-68
2021/05/03 07:26:58;;;;;;;0.60;0.60;;;21.30;40.50;;;;;;5048677;28;20481;-68
2021/05/03 07:29:24;;;;;;;0.50;0.50;;;21.30;40.50;;;;;;5018001;28;20420;-68
2021/05/03 07:31:50;;;;;;;3.50;0.77;;;21.30;40.70;;;;;;5011543;28;20436;-68
2021/05/03 07:34:17;;;;;;;0.70;0.50;;;21.30;40.60;;;;;;5017260;28;20425;-69
2021/05/03 07:36:44;;;;;;;0.50;0.50;;;21.30;40.70;;;;;;5023679;28;20507;-66
2021/05/03 07:39:10;;;;;;;0.60;0.60;;;21.40;40.90;;;;;;5037566;28;20418;-67
2021/05/03 07:41:37;;;;;;;0.80;0.60;;;21.40;40.70;;;;;;5034851;28;20408;-68
2021/05/03 07:44:03;;;;;;;0.50;0.40;;;21.40;40.80;;;;;;5048504;28;20483;-67
2021/05/03 07:46:29;;;;;;;1.00;0.70;;;21.40;40.90;;;;;;5023193;28;20431;-68
2021/05/03 07:48:58;;;;;;;1.80;0.60;;;21.40;40.80;;;;;;5050765;28;20483;-67
2021/05/03 07:51:24;;;;;;;0.57;0.50;;;21.30;40.80;;;;;;5020918;28;20484;-67
2021/05/03 07:53:51;;;;;;;0.77;0.50;;;21.30;40.80;;;;;;5017228;28;20435;-68
2021/05/03 07:56:17;;;;;;;0.90;0.60;;;21.30;40.80;;;;;;5032878;28;20415;-66
2021/05/03 07:58:44;;;;;;;0.70;0.60;;;21.40;40.80;;;;;;5049774;28;21014;-68
2021/05/03 08:01:10;;;;;;;1.35;0.60;;;21.40;40.80;;;;;;5049020;28;20436;-68
2021/05/03 08:03:38;;;;;;;0.80;0.50;;;21.40;40.70;;;;;;5035032;28;20553;-67
2021/05/03 08:06:05;;;;;;;0.60;0.60;;;21.40;40.60;;;;;;5033683;28;20427;-68
2021/05/03 08:08:31;;;;;;;0.70;0.50;;;21.50;40.70;;;;;;5036199;28;21128;-68
2021/05/03 08:10:58;;;;;;;0.50;0.50;;;21.50;40.70;;;;;;5051955;28;20559;-68
2021/05/03 08:13:26;;;;;;;0.65;0.65;;;21.50;40.70;;;;;;5050078;28;20411;-67
2021/05/03 08:15:53;;;;;;;0.80;0.60;;;21.50;40.70;;;;;;5046672;28;20857;-69
2021/05/03 08:18:20;;;;;;;1.00;0.60;;;21.50;41.00;;;;;;5046729;28;20412;-68
2021/05/03 08:20:46;;;;;;;1.60;0.80;;;21.50;40.80;;;;;;5034697;28;20424;-68
2021/05/03 08:23:18;;;;;;;0.70;0.50;;;21.50;40.80;;;;;;5034380;28;21267;-67
2021/05/03 08:25:44;;;;;;;1.00;0.63;;;21.50;40.80;;;;;;5037806;28;21135;-68
2021/05/03 08:28:11;;;;;;;1.50;0.60;;;21.40;40.80;;;;;;5044241;28;20623;-68
2021/05/03 08:30:37;;;;;;;0.60;0.60;;;21.40;40.80;;;;;;5026253;28;20415;-69
2021/05/03 08:33:04;;;;;;;0.47;0.47;;;21.40;41.00;;;;;;5049050;28;20416;-68
2021/05/03 08:35:30;;;;;;;0.55;0.55;;;21.40;41.00;;;;;;5049321;28;20403;-68
2021/05/03 08:37:56;;;;;;;1.00;0.60;;;21.40;40.90;;;;;;5020928;28;20806;-69
2021/05/03 08:40:22;;;;;;;1.80;0.60;;;21.40;40.80;;;;;;5044796;28;20411;-68
2021/05/03 08:42:49;;;;;;;0.70;0.60;;;21.40;40.70;;;;;;5036575;28;21525;-69
2021/05/03 08:45:16;;;;;;;0.60;0.60;;;21.40;40.60;;;;;;5044173;28;20416;-68
2021/05/03 08:47:53;;;;;;;0.90;0.60;;;21.40;40.60;;;;;;5033009;28;21422;-67
2021/05/03 08:50:27;;;;;;;0.80;0.57;;;21.40;40.70;;;;;;5029969;28;20414;-68
2021/05/03 08:52:55;;;;;;;0.50;0.50;;;21.40;40.60;;;;;;5040413;28;20411;-68
2021/05/03 08:55:21;;;;;;;0.70;0.70;;;21.50;40.50;;;;;;5036121;28;20520;-68
2021/05/03 08:57:47;;;;;;;0.77;0.70;;;21.60;40.30;;;;;;5030887;28;20492;-68
2021/05/03 09:00:16;;;;;;;0.60;0.60;;;21.60;40.30;;;;;;5047133;28;20792;-68
2021/05/03 09:02:44;;;;;;;0.60;0.50;;;21.70;40.30;;;;;;5011660;28;20528;-68
2021/05/03 09:05:11;;;;;;;1.00;0.70;;;21.70;40.20;;;;;;5035406;28;22520;-68
2021/05/03 09:07:45;;;;;;;1.00;0.50;;;21.70;40.10;;;;;;5031363;28;20427;-67
2021/05/03 09:10:13;;;;;;;0.50;0.50;;;21.70;40.10;;;;;;5042471;28;20841;-68
2021/05/03 09:12:39;;;;;;;0.55;0.55;;;21.70;40.10;;;;;;5045736;28;20473;-68
2021/05/03 09:15:06;;;;;;;0.50;0.50;;;21.70;40.20;;;;;;5021796;28;20878;-68
2021/05/03 09:17:34;;;;;;;0.50;0.50;;;21.70;40.30;;;;;;5037310;28;20498;-69
2021/05/03 09:20:02;;;;;;;0.50;0.50;;;21.60;40.20;;;;;;5040400;28;20430;-68
2021/05/03 09:22:29;;;;;;;0.60;0.50;;;21.60;40.10;;;;;;5051175;28;20408;-67
2021/05/03 09:25:12;;;;;;;1.00;0.50;;;21.60;40.20;;;;;;5051199;28;20411;-67
2021/05/03 09:27:38;;;;;;;0.80;0.50;;;21.60;40.20;;;;;;5051487;28;21113;-68
2021/05/03 09:30:05;;;;;;;0.60;0.60;;;21.60;40.20;;;;;;5051354;28;20419;-67
2021/05/03 09:32:32;;;;;;;0.90;0.60;;;21.60;40.20;;;;;;5020569;28;20440;-69
2021/05/03 09:34:58;;;;;;;0.60;0.60;;;21.60;40.20;;;;;;5050104;28;20791;-68
2021/05/03 09:37:29;;;;;;;0.90;0.55;;;21.60;40.30;;;;;;5020934;28;20407;-67
2021/05/03 09:39:57;;;;;;;0.83;0.70;;;21.60;40.30;;;;;;5040634;28;20439;-68
2021/05/03 09:42:24;;;;;;;0.73;0.70;;;21.60;40.30;;;;;;5039199;28;20399;-70
2021/05/03 09:45:06;;;;;;;2.10;0.70;;;21.60;40.30;;;;;;5049410;28;20417;-67
2021/05/03 09:47:33;;;;;;;0.70;0.70;;;21.60;40.40;;;;;;5044556;28;20817;-69
2021/05/03 09:50:03;;;;;;;1.90;0.70;;;21.60;40.30;;;;;;5048374;28;20412;-68
2021/05/03 09:52:29;;;;;;;0.60;0.60;;;21.60;40.40;;;;;;5041253;28;20970;-68
2021/05/03 09:54:55;;;;;;;0.80;0.80;;;21.60;40.40;;;;;;5048167;28;20440;-67
2021/05/03 09:57:21;;;;;;;0.70;0.60;;;21.60;40.30;;;;;;5050346;28;20406;-68
2021/05/03 09:59:48;;;;;;;0.85;0.70;;;21.60;40.40;;;;;;5021493;28;20424;-68
2021/05/03 10:02:17;;;;;;;1.20;0.60;;;21.60;40.40;;;;;;5045578;28;20496;-68
2021/05/03 10:04:56;;;;;;;1.00;0.70;;;21.60;40.50;;;;;;5052450;28;20414;-68
2021/05/03 10:07:23;;;;;;;0.80;0.80;;;21.50;40.50;;;;;;5031267;28;20426;-68
2021/05/03 10:09:51;;;;;;;0.50;0.50;;;21.50;40.50;;;;;;5036528;28;20439;-68
2021/05/03 10:12:18;;;;;;;0.60;0.60;;;21.50;40.40;;;;;;5049701;28;20409;-66
2021/05/03 10:14:45;;;;;;;0.60;0.60;;;21.60;40.50;;;;;;5052744;28;20474;-68
2021/05/03 10:17:11;;;;;;;1.10;0.70;;;21.60;40.40;;;;;;5050751;28;20465;-68
2021/05/03 10:19:37;;;;;;;0.80;0.50;;;21.60;40.40;;;;;;5052092;28;20517;-69
2021/05/03 10:22:05;;;;;;;0.90;0.60;;;21.60;40.50;;;;;;5051066;28;20412;-68
2021/05/03 10:24:31;;;;;;;0.70;0.60;;;21.60;40.60;;;;;;5050758;28;20491;-69
2021/05/03 10:26:57;;;;;;;0.50;0.50;;;21.50;40.40;;;;;;5047983;28;20419;-69
2021/05/03 10:29:29;;;;;;;0.60;0.60;;;21.50;40.60;;;;;;5048831;28;21262;-68
2021/05/03 10:32:00;;;;;;;0.77;0.50;;;21.50;40.50;;;;;;5020709;28;20477;-69
2021/05/03 10:34:40;;;;;;;0.52;0.52;;;21.50;40.50;;;;;;5017452;28;20411;-69
2021/05/03 10:37:30;;;;;;;0.60;0.60;;;21.50;40.50;;;;;;5026652;28;20425;-68
2021/05/03 10:39:57;;;;;;;0.60;0.52;;;21.50;40.50;;;;;;5049848;28;20779;-69
2021/05/03 10:42:23;;;;;;;0.50;0.50;;;21.50;40.50;;;;;;5030978;28;20416;-68
2021/05/03 10:45:10;;;;;;;0.60;0.60;;;21.50;41.30;;;;;;5018879;28;20410;-67
2021/05/03 10:47:40;;;;;;;0.55;0.55;;;21.50;40.60;;;;;;5006717;28;21274;-66
2021/05/03 10:50:34;;;;;;;0.50;0.50;;;21.50;40.60;;;;;;5014135;28;20445;-68
2021/05/03 10:53:26;;;;;;;0.73;0.50;;;21.50;40.70;;;;;;5054007;28;20941;-67
2021/05/03 10:55:56;;;;;;;0.50;0.50;;;21.60;40.70;;;;;;5022824;28;20452;-69
2021/05/03 10:58:22;;;;;;;0.50;0.50;;;21.50;40.60;;;;;;5048237;28;20438;-67
2021/05/03 11:00:56;;;;;;;0.50;0.50;;;21.60;40.60;;;;;;5047612;28;20412;-68
2021/05/03 11:03:55;;;;;;;0.50;0.50;;;21.60;40.70;;;;;;5035696;28;20686;-69
2021/05/03 11:07:00;;;;;;;0.70;0.60;;;21.60;40.60;;;;;;5041677;28;20943;-66
2021/05/03 11:09:42;;;;;;;0.60;0.60;;;21.60;40.50;;;;;;5028593;28;20469;-68
2021/05/03 11:12:31;;;;;;;0.50;0.50;;;21.60;40.60;;;;;;5030880;28;20468;-67
2021/05/03 11:15:16;;;;;;;0.60;0.60;;;21.60;40.50;;;;;;5026032;28;20631;-68
2021/05/03 11:18:22;;;;;;;0.80;0.50;;;21.60;40.70;;;;;;5041995;28;20399;-67
2021/05/03 11:21:09;;;;;;;0.50;0.50;;;21.60;40.70;;;;;;5048985;28;20439;-67
2021/05/03 11:23:37;;;;;;;0.73;0.70;;;21.50;40.70;;;;;;5036720;28;20919;-68
2021/05/03 11:26:04;;;;;;;0.50;0.50;;;21.50;40.80;;;;;;5043282;28;20420;-68
2021/05/03 11:28:34;;;;;;;0.50;0.50;;;21.50;40.70;;;;;;5017518;28;20408;-68
2021/05/03 11:31:11;;;;;;;0.60;0.60;;;21.50;40.70;;;;;;5018849;28;20929;-68
2021/05/03 11:33:39;;;;;;;1.70;0.50;;;21.50;40.70;;;;;;5025103;28;20411;-68
2021/05/03 11:36:11;;;;;;;0.50;0.50;;;21.50;40.70;;;;;;5022445;28;20511;-68
2021/05/03 11:38:49;;;;;;;0.60;0.60;;;21.50;40.80;;;;;;5031009;28;20538;-68
2021/05/03 11:41:27;;;;;;;0.50;0.50;;;21.50;40.80;;;;;;4990529;28;20901;-68
2021/05/03 11:44:09;;;;;;;0.80;0.60;;;21.50;40.80;;;;;;5019165;28;21403;-68
2021/05/03 11:46:36;;;;;;;0.60;0.60;;;21.50;40.80;;;;;;5029946;28;20425;-68
2021/05/03 11:49:16;;;;;;;0.80;0.70;;;21.50;40.80;;;;;;5026299;28;20542;-66
2021/05/03 11:51:43;;;;;;;0.60;0.60;;;21.50;40.90;;;;;;5024389;28;20527;-67
2021/05/03 11:54:25;;;;;;;0.70;0.70;;;21.50;40.90;;;;;;5043446;28;20423;-69
2021/05/03 11:56:57;;;;;;;0.60;0.60;;;21.50;40.80;;;;;;5019590;28;20419;-69
2021/05/03 11:59:23;;;;;;;0.60;0.60;;;21.50;40.80;;;;;;5029840;28;20430;-70
2021/05/03 12:01:57;;;;;;;0.50;0.50;;;21.60;40.70;;;;;;5036124;28;20412;-68
2021/05/03 12:04:31;;;;;;;0.90;0.52;;;21.60;40.70;;;;;;5050789;28;20418;-68
2021/05/03 12:06:57;;;;;;;0.50;0.50;;;21.60;40.70;;;;;;5032228;28;20419;-69
2021/05/03 12:09:24;;;;;;;0.77;0.68;;;21.60;40.70;;;;;;5033893;28;20417;-68
2021/05/03 12:11:58;;;;;;;0.70;0.70;;;21.60;40.70;;;;;;5018553;28;20629;-69
2021/05/03 12:14:38;;;;;;;0.70;0.70;;;21.60;40.70;;;;;;5031134;28;20465;-68
2021/05/03 12:17:15;;;;;;;0.70;0.70;;;21.50;40.70;;;;;;5025156;28;20427;-67
2021/05/03 12:19:41;;;;;;;0.80;0.70;;;21.50;41.00;;;;;;5034711;28;20420;-68
2021/05/03 12:22:07;;;;;;;1.00;0.90;;;21.50;41.00;;;;;;5020613;28;20427;-68
2021/05/03 12:24:34;;;;;;;1.30;0.93;;;21.40;41.00;;;;;;5042784;28;20416;-67
2021/05/03 12:27:01;;;;;;;1.40;1.20;;;21.40;41.00;;;;;;5045270;28;20479;-65
2021/05/03 12:29:28;;;;;;;0.98;0.80;;;21.40;41.00;;;;;;5048254;28;20412;-67
2021/05/03 12:31:54;;;;;;;0.90;0.90;;;21.40;40.70;;;;;;5047582;28;20439;-68
2021/05/03 12:34:21;;;;;;;1.50;1.10;;;21.40;40.70;;;;;;5032422;28;20807;-67
2021/05/03 12:37:04;;;;;;;1.00;1.00;;;21.40;40.70;;;;;;5027892;28;21071;-67
2021/05/03 12:39:30;;;;;;;0.90;0.90;;;21.40;41.10;;;;;;5033218;28;20408;-68
2021/05/03 12:41:56;;;;;;;1.30;1.30;;;21.40;40.90;;;;;;5025365;28;20401;-69
2021/05/03 12:44:25;;;;;;;1.20;1.20;;;21.40;40.80;;;;;;5029090;28;20824;-69
2021/05/03 12:46:52;;;;;;;1.20;1.20;;;21.50;40.70;;;;;;5018025;28;20471;-68
2021/05/03 12:49:25;;;;;;;1.13;1.13;;;21.50;40.80;;;;;;5046716;28;21040;-66
2021/05/03 12:52:01;;;;;;;1.33;1.33;;;21.40;40.60;;;;;;5025323;28;20503;-68
2021/05/03 12:54:38;;;;;;;1.67;1.40;;;21.40;40.70;;;;;;5043046;28;20450;-68
2021/05/03 12:57:12;;;;;;;1.50;1.40;;;21.40;40.80;;;;;;5014552;28;20493;-68
2021/05/03 12:59:47;;;;;;;1.77;1.40;;;21.40;40.90;;;;;;5048478;28;20479;-68